Terminal Aerodrome Forecast
Issued by NWS

Home | Current Version | Previous Version | Text Only | Print | Product List | Glossary On
Versions: 1 2 3 4 5 6 7 8 9 10 11 12 13 14 15 16 17 18 19 20 21 22 23 24 25 26 27 28 29 30 31 32 33 34
000
FTUS45 KGJT 251134 AAA
TAFTEX
TAF AMD
KTEX 251134Z 2512/2612 13005KT P6SM BKN050
     FM251500 18005KT P6SM VCSH BKN090
     FM251800 25006KT P6SM VCSH BKN060
     FM252100 25010G22KT P6SM BKN060
     FM260000 24009KT P6SM VCSH BKN060
     FM260300 21006KT P6SM VCSH BKN050
     FM260600 15004KT P6SM VCSH BKN040=

USA.gov is the U.S. government's official web portal to all federal, state and local government web resources and services.